CheckWX is a tool to help pilots better visualize weather data.  It is not intended as a substitute for an official pre-flight weather briefing.

14:58:08 UTC

KLUA METAR
Luray Caverns Airport
Luray, Virginia, USA
Current

23 mins ago

KLUA 221435Z AUTO 08004KT 10SM CLR 15/07 A3020 RMK AO2
Observed
Apr-22 @ 14:35 UTC
Wind
  • 080° at 4 KTS
Visibility
10 SM
Flight Rules
VFR
Cloud Levels
  • Clear skies
Temperature
15°C / 59°F
Dewpoint
C / 45°F
Humidity
59%
Altimeter
30.2" Hg
Pressure
1022.72 hPa
Previous

43 mins ago

KLUA 221415Z AUTO 11003KT 10SM CLR 14/07 A3021 RMK AO2
Observed
Apr-22 @ 14:15 UTC
Wind
  • 110° at 3 KTS
Visibility
10 SM
Flight Rules
VFR
Cloud Levels
  • Clear skies
Temperature
14°C / 57°F
Dewpoint
C / 45°F
Humidity
63%
Altimeter
30.21" Hg
Pressure
1023.02 hPa
Previous

1 hour ago

KLUA 221355Z AUTO 00000KT 10SM CLR 13/07 A3021 RMK AO2
Observed
Apr-22 @ 13:55 UTC
Visibility
10 SM
Flight Rules
VFR
Cloud Levels
  • Clear skies
Temperature
13°C / 55°F
Dewpoint
C / 45°F
Humidity
67%
Altimeter
30.21" Hg
Pressure
1023.02 hPa